Dryden Regional Airport
CYHD : now visible

Airfield :











YOU CAN JOIN US ON...

 
LOGIN :

Register | Disclaimer

   EN    FR    IT 

 









Legend :    VFR   Marginal VFR   IFR   Intensive IFR   Very Intensive IFR
Visi :
Ceiling :
>= 8 km
>= 3000ft
5 to 8 km
1000 to 3000 ft
1500m to 5 km
500 to 1000 ft
800 to 1500m
200 to 500 ft
< 800m
< 200 ft
Symbols :   Thunderstorms  Fog  Heavy snow  Heavy precipitations  Wind > 20 kt






- Airport Elevation : 1354 ft
- IATA code : YHD


CYHD - Dryden Regional

CURRENT METAR :
  • 241700Z AUTO 23015KT 9SM CLR 18/07 A3010 RMK SLP203 DENSITY ALT 1900FT

EXPIRED METARs :
  • 241600Z AUTO 24012G20KT 9SM FEW034 16/07 A3010 RMK SLP203 DENSITY ALT 1700FT
  • 241500Z AUTO 26014KT 9SM CLR 15/07 A3010 RMK SLP203 DENSITY ALT 1500FT

TAF TAF CYHD
Valid from the 24 at 14:00 until the 25 at 02:00 UTC


241340Z 2414/2502 24010G20KT P6SM FEW080
BECMG 2500/2502 19006KT RMK FCST BASED ON AUTO OBS. NXT FCST BY 242000Z
CZWG FIR / North America



MET'MAP, your aeronautical weather chart ! - Copyright ORBIFLY December 2007 - Disclaimer

ORBIFLY MET'MAP TEAM :

Programming & Development : Alexandra Zaïnal
Original concept : Baudouin d'Aumeries
Technical & hardware support : Manuel Goepfert
Assistance : Marc-Olivier Méhu

Contact : metmap@orbifly.com




SOURCES & CREDITS :

   NOAA       Earth
Advisory